sensor_id;sensor_type;location;lat;lon;timestamp;P1;durP1;ratioP1;P2;durP2;ratioP2
19358;SDS011;9815;52.334;20.890;2023-05-10T00:01:24;13.50;;;5.60;;
19358;SDS011;9815;52.334;20.890;2023-05-10T00:03:52;9.57;;;5.20;;
19358;SDS011;9815;52.334;20.890;2023-05-10T00:06:20;11.33;;;5.70;;
19358;SDS011;9815;52.334;20.890;2023-05-10T00:08:48;11.73;;;5.93;;
19358;SDS011;9815;52.334;20.890;2023-05-10T00:11:17;10.43;;;5.57;;
19358;SDS011;9815;52.334;20.890;2023-05-10T00:13:48;9.53;;;5.67;;
19358;SDS011;9815;52.334;20.890;2023-05-10T00:16:16;10.57;;;5.23;;
19358;SDS011;9815;52.334;20.890;2023-05-10T00:18:44;11.60;;;5.17;;
19358;SDS011;9815;52.334;20.890;2023-05-10T00:21:12;11.73;;;5.23;;
19358;SDS011;9815;52.334;20.890;2023-05-10T00:23:40;12.47;;;5.30;;
19358;SDS011;9815;52.334;20.890;2023-05-10T00:26:08;8.90;;;5.00;;
19358;SDS011;9815;52.334;20.890;2023-05-10T00:28:38;10.90;;;5.53;;
19358;SDS011;9815;52.334;20.890;2023-05-10T00:31:06;11.20;;;5.83;;
19358;SDS011;9815;52.334;20.890;2023-05-10T00:33:34;14.07;;;6.27;;
19358;SDS011;9815;52.334;20.890;2023-05-10T00:36:02;12.20;;;6.13;;
19358;SDS011;9815;52.334;20.890;2023-05-10T00:38:33;9.23;;;5.77;;
19358;SDS011;9815;52.334;20.890;2023-05-10T00:41:02;11.80;;;6.00;;
19358;SDS011;9815;52.334;20.890;2023-05-10T00:43:32;11.47;;;5.83;;
19358;SDS011;9815;52.334;20.890;2023-05-10T00:46:04;15.37;;;5.83;;
19358;SDS011;9815;52.334;20.890;2023-05-10T00:48:32;12.43;;;5.63;;
19358;SDS011;9815;52.334;20.890;2023-05-10T00:51:01;11.67;;;6.00;;
19358;SDS011;9815;52.334;20.890;2023-05-10T00:53:31;13.53;;;5.67;;
19358;SDS011;9815;52.334;20.890;2023-05-10T00:55:59;10.10;;;5.00;;
19358;SDS011;9815;52.334;20.890;2023-05-10T00:58:27;9.90;;;5.33;;
19358;SDS011;9815;52.334;20.890;2023-05-10T01:00:58;9.70;;;5.13;;
19358;SDS011;9815;52.334;20.890;2023-05-10T01:03:28;8.67;;;5.10;;
19358;SDS011;9815;52.334;20.890;2023-05-10T01:05:56;10.97;;;5.27;;
19358;SDS011;9815;52.334;20.890;2023-05-10T01:08:25;10.17;;;5.03;;
19358;SDS011;9815;52.334;20.890;2023-05-10T01:10:53;9.03;;;5.00;;
19358;SDS011;9815;52.334;20.890;2023-05-10T01:13:25;11.77;;;4.73;;
19358;SDS011;9815;52.334;20.890;2023-05-10T01:16:00;8.30;;;4.93;;
19358;SDS011;9815;52.334;20.890;2023-05-10T01:18:31;11.70;;;5.03;;
19358;SDS011;9815;52.334;20.890;2023-05-10T01:21:04;7.60;;;4.60;;
19358;SDS011;9815;52.334;20.890;2023-05-10T01:23:45;8.53;;;4.90;;
19358;SDS011;9815;52.334;20.890;2023-05-10T01:26:46;7.50;;;4.70;;
19358;SDS011;9815;52.334;20.890;2023-05-10T01:29:38;8.83;;;4.57;;
19358;SDS011;9815;52.334;20.890;2023-05-10T01:32:41;9.13;;;4.70;;
19358;SDS011;9815;52.334;20.890;2023-05-10T01:35:17;8.37;;;4.43;;
19358;SDS011;9815;52.334;20.890;2023-05-10T01:37:56;8.40;;;4.80;;
19358;SDS011;9815;52.334;20.890;2023-05-10T01:40:30;10.83;;;5.20;;
19358;SDS011;9815;52.334;20.890;2023-05-10T01:43:07;8.10;;;4.43;;
19358;SDS011;9815;52.334;20.890;2023-05-10T01:45:39;8.33;;;4.70;;
19358;SDS011;9815;52.334;20.890;2023-05-10T01:48:16;8.40;;;4.70;;
19358;SDS011;9815;52.334;20.890;2023-05-10T01:50:45;9.07;;;4.73;;
19358;SDS011;9815;52.334;20.890;2023-05-10T01:53:17;8.43;;;4.80;;
19358;SDS011;9815;52.334;20.890;2023-05-10T01:55:47;9.47;;;4.97;;
19358;SDS011;9815;52.334;20.890;2023-05-10T01:58:19;10.37;;;4.70;;
19358;SDS011;9815;52.334;20.890;2023-05-10T02:00:50;11.87;;;4.80;;
19358;SDS011;9815;52.334;20.890;2023-05-10T02:03:21;10.33;;;4.40;;
19358;SDS011;9815;52.334;20.890;2023-05-10T02:05:52;8.80;;;4.30;;
19358;SDS011;9815;52.334;20.890;2023-05-10T02:08:22;8.10;;;4.33;;
19358;SDS011;9815;52.334;20.890;2023-05-10T02:10:52;7.67;;;4.17;;
19358;SDS011;9815;52.334;20.890;2023-05-10T02:13:22;7.10;;;4.50;;
19358;SDS011;9815;52.334;20.890;2023-05-10T02:15:52;9.80;;;4.37;;
19358;SDS011;9815;52.334;20.890;2023-05-10T02:18:23;7.40;;;4.37;;
19358;SDS011;9815;52.334;20.890;2023-05-10T02:20:53;6.73;;;4.30;;
19358;SDS011;9815;52.334;20.890;2023-05-10T02:23:22;14.37;;;5.00;;
19358;SDS011;9815;52.334;20.890;2023-05-10T02:25:52;10.00;;;4.27;;
19358;SDS011;9815;52.334;20.890;2023-05-10T02:28:22;6.77;;;4.33;;
19358;SDS011;9815;52.334;20.890;2023-05-10T02:30:52;9.40;;;4.37;;
19358;SDS011;9815;52.334;20.890;2023-05-10T02:33:22;9.07;;;4.00;;
19358;SDS011;9815;52.334;20.890;2023-05-10T02:35:51;7.23;;;4.23;;
19358;SDS011;9815;52.334;20.890;2023-05-10T02:38:20;8.30;;;4.43;;
19358;SDS011;9815;52.334;20.890;2023-05-10T02:40:50;8.37;;;4.30;;
19358;SDS011;9815;52.334;20.890;2023-05-10T02:43:21;10.17;;;4.53;;
19358;SDS011;9815;52.334;20.890;2023-05-10T02:45:51;10.20;;;4.70;;
19358;SDS011;9815;52.334;20.890;2023-05-10T02:48:19;10.33;;;4.53;;
19358;SDS011;9815;52.334;20.890;2023-05-10T02:50:49;7.53;;;4.17;;
19358;SDS011;9815;52.334;20.890;2023-05-10T02:53:20;9.03;;;4.13;;
19358;SDS011;9815;52.334;20.890;2023-05-10T02:55:57;9.23;;;4.33;;
19358;SDS011;9815;52.334;20.890;2023-05-10T02:58:27;6.27;;;4.17;;
19358;SDS011;9815;52.334;20.890;2023-05-10T03:00:55;7.17;;;4.40;;
19358;SDS011;9815;52.334;20.890;2023-05-10T03:03:24;7.67;;;4.23;;
19358;SDS011;9815;52.334;20.890;2023-05-10T03:05:53;11.07;;;4.30;;
19358;SDS011;9815;52.334;20.890;2023-05-10T03:08:22;7.90;;;4.47;;
19358;SDS011;9815;52.334;20.890;2023-05-10T03:10:55;9.37;;;4.60;;
19358;SDS011;9815;52.334;20.890;2023-05-10T03:13:29;8.23;;;4.50;;
19358;SDS011;9815;52.334;20.890;2023-05-10T03:16:05;10.23;;;4.23;;
19358;SDS011;9815;52.334;20.890;2023-05-10T03:18:37;12.37;;;4.73;;
19358;SDS011;9815;52.334;20.890;2023-05-10T03:21:12;9.20;;;4.20;;
19358;SDS011;9815;52.334;20.890;2023-05-10T03:23:48;5.63;;;4.10;;
19358;SDS011;9815;52.334;20.890;2023-05-10T03:26:20;12.57;;;4.90;;
19358;SDS011;9815;52.334;20.890;2023-05-10T03:29:00;8.57;;;4.33;;
19358;SDS011;9815;52.334;20.890;2023-05-10T03:31:29;9.13;;;4.30;;
19358;SDS011;9815;52.334;20.890;2023-05-10T03:33:58;8.87;;;4.07;;
19358;SDS011;9815;52.334;20.890;2023-05-10T03:36:28;9.23;;;4.53;;
19358;SDS011;9815;52.334;20.890;2023-05-10T03:38:57;11.67;;;5.00;;
19358;SDS011;9815;52.334;20.890;2023-05-10T03:41:26;10.63;;;4.67;;
19358;SDS011;9815;52.334;20.890;2023-05-10T03:43:54;7.00;;;3.90;;
19358;SDS011;9815;52.334;20.890;2023-05-10T03:46:22;10.10;;;4.90;;
19358;SDS011;9815;52.334;20.890;2023-05-10T03:48:50;9.57;;;4.30;;
19358;SDS011;9815;52.334;20.890;2023-05-10T03:51:18;8.57;;;4.57;;
19358;SDS011;9815;52.334;20.890;2023-05-10T03:53:48;10.17;;;4.80;;
19358;SDS011;9815;52.334;20.890;2023-05-10T03:56:17;11.50;;;4.63;;
19358;SDS011;9815;52.334;20.890;2023-05-10T03:58:45;8.97;;;5.07;;
19358;SDS011;9815;52.334;20.890;2023-05-10T04:01:13;8.87;;;4.70;;
19358;SDS011;9815;52.334;20.890;2023-05-10T04:03:41;12.93;;;4.60;;
19358;SDS011;9815;52.334;20.890;2023-05-10T04:06:11;8.67;;;3.87;;
19358;SDS011;9815;52.334;20.890;2023-05-10T04:08:39;7.00;;;4.40;;
19358;SDS011;9815;52.334;20.890;2023-05-10T04:11:08;8.20;;;4.40;;
19358;SDS011;9815;52.334;20.890;2023-05-10T04:13:37;9.30;;;4.40;;
19358;SDS011;9815;52.334;20.890;2023-05-10T04:16:06;8.23;;;3.93;;
19358;SDS011;9815;52.334;20.890;2023-05-10T04:18:34;9.77;;;3.87;;
19358;SDS011;9815;52.334;20.890;2023-05-10T04:21:02;8.03;;;4.17;;
19358;SDS011;9815;52.334;20.890;2023-05-10T04:23:30;7.67;;;4.03;;
19358;SDS011;9815;52.334;20.890;2023-05-10T04:25:59;8.63;;;4.40;;
19358;SDS011;9815;52.334;20.890;2023-05-10T04:28:29;8.27;;;4.30;;
19358;SDS011;9815;52.334;20.890;2023-05-10T04:31:00;9.07;;;4.57;;
19358;SDS011;9815;52.334;20.890;2023-05-10T04:33:29;8.63;;;3.90;;
19358;SDS011;9815;52.334;20.890;2023-05-10T04:35:57;8.50;;;4.30;;
19358;SDS011;9815;52.334;20.890;2023-05-10T04:38:25;9.60;;;4.13;;
19358;SDS011;9815;52.334;20.890;2023-05-10T04:40:54;11.27;;;4.57;;
19358;SDS011;9815;52.334;20.890;2023-05-10T04:43:22;8.30;;;3.63;;
19358;SDS011;9815;52.334;20.890;2023-05-10T04:45:51;6.07;;;3.80;;
19358;SDS011;9815;52.334;20.890;2023-05-10T04:48:19;10.70;;;4.00;;
19358;SDS011;9815;52.334;20.890;2023-05-10T04:50:47;7.97;;;3.90;;
19358;SDS011;9815;52.334;20.890;2023-05-10T04:53:15;7.10;;;3.77;;
19358;SDS011;9815;52.334;20.890;2023-05-10T04:55:43;6.80;;;3.93;;
19358;SDS011;9815;52.334;20.890;2023-05-10T04:58:11;7.93;;;3.50;;
19358;SDS011;9815;52.334;20.890;2023-05-10T05:00:39;9.60;;;4.20;;
19358;SDS011;9815;52.334;20.890;2023-05-10T05:03:09;11.63;;;4.63;;
19358;SDS011;9815;52.334;20.890;2023-05-10T05:05:37;9.13;;;4.20;;
19358;SDS011;9815;52.334;20.890;2023-05-10T05:08:05;7.97;;;3.43;;
19358;SDS011;9815;52.334;20.890;2023-05-10T05:10:33;8.23;;;3.87;;
19358;SDS011;9815;52.334;20.890;2023-05-10T05:13:01;7.20;;;4.17;;
19358;SDS011;9815;52.334;20.890;2023-05-10T05:15:29;10.57;;;4.20;;
19358;SDS011;9815;52.334;20.890;2023-05-10T05:17:57;6.70;;;4.00;;
19358;SDS011;9815;52.334;20.890;2023-05-10T05:20:27;10.33;;;5.20;;
19358;SDS011;9815;52.334;20.890;2023-05-10T05:22:55;7.60;;;3.80;;
19358;SDS011;9815;52.334;20.890;2023-05-10T05:25:23;10.57;;;4.63;;
19358;SDS011;9815;52.334;20.890;2023-05-10T05:27:51;11.57;;;3.93;;
19358;SDS011;9815;52.334;20.890;2023-05-10T05:30:19;8.73;;;4.20;;
19358;SDS011;9815;52.334;20.890;2023-05-10T05:32:47;8.73;;;4.10;;
19358;SDS011;9815;52.334;20.890;2023-05-10T05:35:15;6.57;;;3.73;;
19358;SDS011;9815;52.334;20.890;2023-05-10T05:37:45;7.67;;;3.97;;
19358;SDS011;9815;52.334;20.890;2023-05-10T05:40:13;9.40;;;3.27;;
19358;SDS011;9815;52.334;20.890;2023-05-10T05:42:41;8.57;;;4.13;;
19358;SDS011;9815;52.334;20.890;2023-05-10T05:45:09;7.23;;;3.90;;
19358;SDS011;9815;52.334;20.890;2023-05-10T05:47:39;11.27;;;3.90;;
19358;SDS011;9815;52.334;20.890;2023-05-10T05:50:08;7.60;;;3.97;;
19358;SDS011;9815;52.334;20.890;2023-05-10T05:52:36;9.77;;;4.20;;
19358;SDS011;9815;52.334;20.890;2023-05-10T05:55:06;6.07;;;3.37;;
19358;SDS011;9815;52.334;20.890;2023-05-10T05:57:34;7.60;;;3.70;;
19358;SDS011;9815;52.334;20.890;2023-05-10T06:00:03;8.53;;;3.90;;
19358;SDS011;9815;52.334;20.890;2023-05-10T06:02:37;9.03;;;3.50;;
19358;SDS011;9815;52.334;20.890;2023-05-10T06:05:06;7.90;;;3.53;;
19358;SDS011;9815;52.334;20.890;2023-05-10T06:07:35;6.90;;;3.43;;
19358;SDS011;9815;52.334;20.890;2023-05-10T06:10:03;7.67;;;3.50;;
19358;SDS011;9815;52.334;20.890;2023-05-10T06:12:34;7.50;;;3.57;;
19358;SDS011;9815;52.334;20.890;2023-05-10T06:15:02;7.50;;;3.57;;
19358;SDS011;9815;52.334;20.890;2023-05-10T06:17:31;9.40;;;3.43;;
19358;SDS011;9815;52.334;20.890;2023-05-10T06:19:59;8.23;;;3.40;;
19358;SDS011;9815;52.334;20.890;2023-05-10T06:22:28;9.50;;;3.50;;
19358;SDS011;9815;52.334;20.890;2023-05-10T06:24:56;7.73;;;3.47;;
19358;SDS011;9815;52.334;20.890;2023-05-10T06:27:25;8.50;;;3.53;;
19358;SDS011;9815;52.334;20.890;2023-05-10T06:29:53;8.83;;;3.10;;
19358;SDS011;9815;52.334;20.890;2023-05-10T06:32:34;14.00;;;3.30;;
19358;SDS011;9815;52.334;20.890;2023-05-10T06:35:03;6.17;;;3.03;;
19358;SDS011;9815;52.334;20.890;2023-05-10T06:37:31;6.57;;;2.73;;
19358;SDS011;9815;52.334;20.890;2023-05-10T06:39:59;7.33;;;2.63;;
19358;SDS011;9815;52.334;20.890;2023-05-10T06:42:29;5.63;;;2.80;;
19358;SDS011;9815;52.334;20.890;2023-05-10T06:44:57;4.60;;;2.40;;
19358;SDS011;9815;52.334;20.890;2023-05-10T06:47:25;4.13;;;2.37;;
19358;SDS011;9815;52.334;20.890;2023-05-10T06:49:53;6.30;;;2.60;;
19358;SDS011;9815;52.334;20.890;2023-05-10T06:52:22;6.87;;;3.07;;
19358;SDS011;9815;52.334;20.890;2023-05-10T06:54:50;5.87;;;2.50;;
19358;SDS011;9815;52.334;20.890;2023-05-10T06:57:18;5.10;;;2.60;;
19358;SDS011;9815;52.334;20.890;2023-05-10T06:59:58;9.27;;;2.57;;
19358;SDS011;9815;52.334;20.890;2023-05-10T07:02:27;5.90;;;2.93;;
19358;SDS011;9815;52.334;20.890;2023-05-10T07:04:55;5.53;;;2.67;;
19358;SDS011;9815;52.334;20.890;2023-05-10T07:07:27;7.17;;;2.57;;
19358;SDS011;9815;52.334;20.890;2023-05-10T07:09:56;6.17;;;2.50;;
19358;SDS011;9815;52.334;20.890;2023-05-10T07:12:24;8.17;;;2.80;;
19358;SDS011;9815;52.334;20.890;2023-05-10T07:14:52;5.50;;;2.37;;
19358;SDS011;9815;52.334;20.890;2023-05-10T07:17:22;10.37;;;2.80;;
19358;SDS011;9815;52.334;20.890;2023-05-10T07:19:50;5.70;;;2.60;;
19358;SDS011;9815;52.334;20.890;2023-05-10T07:22:18;7.57;;;2.97;;
19358;SDS011;9815;52.334;20.890;2023-05-10T07:24:49;5.70;;;2.23;;
19358;SDS011;9815;52.334;20.890;2023-05-10T07:27:17;8.77;;;2.47;;
19358;SDS011;9815;52.334;20.890;2023-05-10T07:29:45;5.97;;;2.13;;
19358;SDS011;9815;52.334;20.890;2023-05-10T07:32:13;8.17;;;3.03;;
19358;SDS011;9815;52.334;20.890;2023-05-10T07:34:43;4.33;;;2.23;;
19358;SDS011;9815;52.334;20.890;2023-05-10T07:37:11;5.40;;;2.33;;
19358;SDS011;9815;52.334;20.890;2023-05-10T07:39:39;5.07;;;2.50;;
19358;SDS011;9815;52.334;20.890;2023-05-10T07:42:07;6.57;;;2.20;;
19358;SDS011;9815;52.334;20.890;2023-05-10T07:44:35;4.63;;;2.00;;
19358;SDS011;9815;52.334;20.890;2023-05-10T07:47:03;5.73;;;2.30;;
19358;SDS011;9815;52.334;20.890;2023-05-10T07:49:31;7.17;;;2.20;;
19358;SDS011;9815;52.334;20.890;2023-05-10T07:52:01;4.97;;;2.03;;
19358;SDS011;9815;52.334;20.890;2023-05-10T07:54:30;8.23;;;2.13;;
19358;SDS011;9815;52.334;20.890;2023-05-10T07:57:00;4.77;;;2.20;;
19358;SDS011;9815;52.334;20.890;2023-05-10T07:59:28;9.00;;;2.50;;
19358;SDS011;9815;52.334;20.890;2023-05-10T08:01:56;15.23;;;3.07;;
19358;SDS011;9815;52.334;20.890;2023-05-10T08:04:24;12.47;;;2.30;;
19358;SDS011;9815;52.334;20.890;2023-05-10T08:06:52;5.00;;;2.10;;
19358;SDS011;9815;52.334;20.890;2023-05-10T08:09:21;6.53;;;2.17;;
19358;SDS011;9815;52.334;20.890;2023-05-10T08:11:50;5.00;;;2.03;;
19358;SDS011;9815;52.334;20.890;2023-05-10T08:14:18;5.67;;;2.33;;
19358;SDS011;9815;52.334;20.890;2023-05-10T08:16:46;3.97;;;2.03;;
19358;SDS011;9815;52.334;20.890;2023-05-10T08:19:14;5.43;;;2.23;;
19358;SDS011;9815;52.334;20.890;2023-05-10T08:21:45;7.53;;;2.03;;
19358;SDS011;9815;52.334;20.890;2023-05-10T08:24:13;9.17;;;2.10;;
19358;SDS011;9815;52.334;20.890;2023-05-10T08:26:42;7.10;;;2.10;;
19358;SDS011;9815;52.334;20.890;2023-05-10T08:29:10;7.13;;;1.93;;
19358;SDS011;9815;52.334;20.890;2023-05-10T08:31:39;9.00;;;2.07;;
19358;SDS011;9815;52.334;20.890;2023-05-10T08:34:09;4.90;;;1.90;;
19358;SDS011;9815;52.334;20.890;2023-05-10T08:36:37;4.97;;;1.80;;
19358;SDS011;9815;52.334;20.890;2023-05-10T08:39:05;4.50;;;1.70;;
19358;SDS011;9815;52.334;20.890;2023-05-10T08:41:50;5.30;;;1.70;;
19358;SDS011;9815;52.334;20.890;2023-05-10T08:44:19;7.23;;;1.97;;
19358;SDS011;9815;52.334;20.890;2023-05-10T08:46:48;5.10;;;2.13;;
19358;SDS011;9815;52.334;20.890;2023-05-10T08:49:20;6.67;;;1.87;;
19358;SDS011;9815;52.334;20.890;2023-05-10T08:51:51;3.70;;;1.80;;
19358;SDS011;9815;52.334;20.890;2023-05-10T08:54:22;5.67;;;2.13;;
19358;SDS011;9815;52.334;20.890;2023-05-10T08:56:52;4.83;;;1.80;;
19358;SDS011;9815;52.334;20.890;2023-05-10T08:59:20;5.13;;;2.27;;
19358;SDS011;9815;52.334;20.890;2023-05-10T09:01:49;4.43;;;1.77;;
19358;SDS011;9815;52.334;20.890;2023-05-10T09:04:19;4.73;;;2.20;;
19358;SDS011;9815;52.334;20.890;2023-05-10T09:06:48;3.87;;;1.73;;
19358;SDS011;9815;52.334;20.890;2023-05-10T09:09:17;5.40;;;2.00;;
19358;SDS011;9815;52.334;20.890;2023-05-10T09:11:45;2.30;;;1.60;;
19358;SDS011;9815;52.334;20.890;2023-05-10T09:14:15;5.33;;;1.80;;
19358;SDS011;9815;52.334;20.890;2023-05-10T09:16:43;4.57;;;2.03;;
19358;SDS011;9815;52.334;20.890;2023-05-10T09:19:12;3.37;;;1.87;;
19358;SDS011;9815;52.334;20.890;2023-05-10T09:21:40;4.67;;;2.23;;
19358;SDS011;9815;52.334;20.890;2023-05-10T09:24:08;7.00;;;2.30;;
19358;SDS011;9815;52.334;20.890;2023-05-10T09:26:41;3.60;;;2.00;;
19358;SDS011;9815;52.334;20.890;2023-05-10T09:29:15;5.33;;;2.20;;
19358;SDS011;9815;52.334;20.890;2023-05-10T09:31:44;6.43;;;2.00;;
19358;SDS011;9815;52.334;20.890;2023-05-10T09:34:17;5.00;;;2.00;;
19358;SDS011;9815;52.334;20.890;2023-05-10T09:36:53;5.30;;;1.90;;
19358;SDS011;9815;52.334;20.890;2023-05-10T09:39:29;5.83;;;1.63;;
19358;SDS011;9815;52.334;20.890;2023-05-10T09:41:59;7.53;;;2.20;;
19358;SDS011;9815;52.334;20.890;2023-05-10T09:44:31;7.37;;;2.13;;
19358;SDS011;9815;52.334;20.890;2023-05-10T09:47:00;7.10;;;2.10;;
19358;SDS011;9815;52.334;20.890;2023-05-10T09:49:28;4.20;;;1.93;;
19358;SDS011;9815;52.334;20.890;2023-05-10T09:51:59;6.70;;;1.80;;
19358;SDS011;9815;52.334;20.890;2023-05-10T09:54:28;4.67;;;1.93;;
19358;SDS011;9815;52.334;20.890;2023-05-10T09:56:57;6.37;;;2.13;;
19358;SDS011;9815;52.334;20.890;2023-05-10T09:59:25;4.83;;;2.17;;
19358;SDS011;9815;52.334;20.890;2023-05-10T10:01:57;8.20;;;2.30;;
19358;SDS011;9815;52.334;20.890;2023-05-10T10:04:26;3.40;;;1.80;;
19358;SDS011;9815;52.334;20.890;2023-05-10T10:06:58;2.73;;;1.90;;
19358;SDS011;9815;52.334;20.890;2023-05-10T10:09:28;6.60;;;2.20;;
19358;SDS011;9815;52.334;20.890;2023-05-10T10:11:56;7.60;;;2.00;;
19358;SDS011;9815;52.334;20.890;2023-05-10T10:14:25;5.23;;;1.87;;
19358;SDS011;9815;52.334;20.890;2023-05-10T10:16:53;3.43;;;1.90;;
19358;SDS011;9815;52.334;20.890;2023-05-10T10:19:35;4.90;;;2.00;;
19358;SDS011;9815;52.334;20.890;2023-05-10T10:22:04;4.70;;;2.10;;
19358;SDS011;9815;52.334;20.890;2023-05-10T10:24:32;3.60;;;1.60;;
19358;SDS011;9815;52.334;20.890;2023-05-10T10:27:02;2.93;;;1.70;;
19358;SDS011;9815;52.334;20.890;2023-05-10T10:29:39;4.73;;;2.07;;
19358;SDS011;9815;52.334;20.890;2023-05-10T10:32:19;7.13;;;1.73;;
19358;SDS011;9815;52.334;20.890;2023-05-10T10:34:55;5.60;;;1.80;;
19358;SDS011;9815;52.334;20.890;2023-05-10T10:37:23;7.67;;;2.03;;
19358;SDS011;9815;52.334;20.890;2023-05-10T10:40:22;5.80;;;2.33;;
19358;SDS011;9815;52.334;20.890;2023-05-10T10:42:51;6.67;;;2.00;;
19358;SDS011;9815;52.334;20.890;2023-05-10T10:45:20;3.43;;;1.87;;
19358;SDS011;9815;52.334;20.890;2023-05-10T10:47:49;7.23;;;2.00;;
19358;SDS011;9815;52.334;20.890;2023-05-10T10:50:45;4.00;;;1.60;;
19358;SDS011;9815;52.334;20.890;2023-05-10T10:53:13;6.77;;;1.90;;
19358;SDS011;9815;52.334;20.890;2023-05-10T10:55:45;6.88;;;2.05;;
19358;SDS011;9815;52.334;20.890;2023-05-10T10:58:28;9.13;;;2.40;;
19358;SDS011;9815;52.334;20.890;2023-05-10T11:01:10;3.83;;;1.97;;
19358;SDS011;9815;52.334;20.890;2023-05-10T11:03:40;4.23;;;2.20;;
19358;SDS011;9815;52.334;20.890;2023-05-10T11:06:10;6.13;;;1.87;;
19358;SDS011;9815;52.334;20.890;2023-05-10T11:08:41;4.27;;;2.10;;
19358;SDS011;9815;52.334;20.890;2023-05-10T11:11:13;3.83;;;1.63;;
19358;SDS011;9815;52.334;20.890;2023-05-10T11:13:42;7.57;;;1.90;;
19358;SDS011;9815;52.334;20.890;2023-05-10T11:16:16;3.67;;;1.70;;
19358;SDS011;9815;52.334;20.890;2023-05-10T11:18:53;2.53;;;1.70;;
19358;SDS011;9815;52.334;20.890;2023-05-10T11:21:26;7.23;;;2.10;;
19358;SDS011;9815;52.334;20.890;2023-05-10T11:23:54;9.67;;;2.10;;
19358;SDS011;9815;52.334;20.890;2023-05-10T11:26:23;4.37;;;1.80;;
19358;SDS011;9815;52.334;20.890;2023-05-10T11:28:53;4.17;;;1.80;;
19358;SDS011;9815;52.334;20.890;2023-05-10T11:31:22;5.57;;;1.80;;
19358;SDS011;9815;52.334;20.890;2023-05-10T11:33:53;4.67;;;1.93;;
19358;SDS011;9815;52.334;20.890;2023-05-10T11:36:23;6.67;;;1.93;;
19358;SDS011;9815;52.334;20.890;2023-05-10T11:38:54;7.67;;;2.27;;
19358;SDS011;9815;52.334;20.890;2023-05-10T11:41:23;6.23;;;1.70;;
19358;SDS011;9815;52.334;20.890;2023-05-10T11:43:52;4.90;;;1.80;;
19358;SDS011;9815;52.334;20.890;2023-05-10T11:46:22;13.30;;;3.20;;
19358;SDS011;9815;52.334;20.890;2023-05-10T11:48:51;6.35;;;2.45;;
19358;SDS011;9815;52.334;20.890;2023-05-10T11:51:20;4.63;;;2.20;;
19358;SDS011;9815;52.334;20.890;2023-05-10T11:53:52;5.68;;;1.90;;
19358;SDS011;9815;52.334;20.890;2023-05-10T11:56:21;7.57;;;2.40;;
19358;SDS011;9815;52.334;20.890;2023-05-10T11:58:51;6.38;;;1.73;;
19358;SDS011;9815;52.334;20.890;2023-05-10T12:01:22;5.30;;;1.80;;
19358;SDS011;9815;52.334;20.890;2023-05-10T12:03:50;8.00;;;2.20;;
19358;SDS011;9815;52.334;20.890;2023-05-10T12:06:21;9.35;;;2.35;;
19358;SDS011;9815;52.334;20.890;2023-05-10T12:08:50;9.03;;;2.03;;
19358;SDS011;9815;52.334;20.890;2023-05-10T12:11:20;7.40;;;1.90;;
19358;SDS011;9815;52.334;20.890;2023-05-10T12:13:51;5.10;;;1.90;;
19358;SDS011;9815;52.334;20.890;2023-05-10T12:16:20;5.82;;;2.10;;
19358;SDS011;9815;52.334;20.890;2023-05-10T12:18:49;9.13;;;2.10;;
19358;SDS011;9815;52.334;20.890;2023-05-10T12:21:18;8.20;;;2.15;;
19358;SDS011;9815;52.334;20.890;2023-05-10T12:23:48;5.63;;;2.00;;
19358;SDS011;9815;52.334;20.890;2023-05-10T12:26:21;8.30;;;2.23;;
19358;SDS011;9815;52.334;20.890;2023-05-10T12:28:49;6.13;;;1.90;;
19358;SDS011;9815;52.334;20.890;2023-05-10T12:31:17;4.40;;;2.05;;
19358;SDS011;9815;52.334;20.890;2023-05-10T12:33:45;7.73;;;1.60;;
19358;SDS011;9815;52.334;20.890;2023-05-10T12:36:16;6.53;;;2.20;;
19358;SDS011;9815;52.334;20.890;2023-05-10T12:38:59;9.97;;;2.23;;
19358;SDS011;9815;52.334;20.890;2023-05-10T12:41:31;14.97;;;2.70;;
19358;SDS011;9815;52.334;20.890;2023-05-10T12:43:59;6.75;;;2.05;;
19358;SDS011;9815;52.334;20.890;2023-05-10T12:46:27;5.17;;;2.13;;
19358;SDS011;9815;52.334;20.890;2023-05-10T12:48:55;4.47;;;2.10;;
19358;SDS011;9815;52.334;20.890;2023-05-10T12:51:34;6.77;;;2.50;;
19358;SDS011;9815;52.334;20.890;2023-05-10T12:54:04;3.45;;;2.10;;
19358;SDS011;9815;52.334;20.890;2023-05-10T12:56:32;5.80;;;2.30;;
19358;SDS011;9815;52.334;20.890;2023-05-10T12:59:00;7.15;;;1.90;;
19358;SDS011;9815;52.334;20.890;2023-05-10T13:01:28;4.07;;;1.80;;
19358;SDS011;9815;52.334;20.890;2023-05-10T13:03:56;7.90;;;2.20;;
19358;SDS011;9815;52.334;20.890;2023-05-10T13:06:26;4.22;;;1.75;;
19358;SDS011;9815;52.334;20.890;2023-05-10T13:08:54;4.88;;;2.10;;
19358;SDS011;9815;52.334;20.890;2023-05-10T13:11:25;3.07;;;1.87;;
19358;SDS011;9815;52.334;20.890;2023-05-10T13:13:53;3.87;;;1.80;;
19358;SDS011;9815;52.334;20.890;2023-05-10T13:16:21;4.03;;;2.00;;
19358;SDS011;9815;52.334;20.890;2023-05-10T13:18:50;3.97;;;1.45;;
19358;SDS011;9815;52.334;20.890;2023-05-10T13:21:19;5.25;;;1.80;;
19358;SDS011;9815;52.334;20.890;2023-05-10T13:23:48;6.15;;;2.33;;
19358;SDS011;9815;52.334;20.890;2023-05-10T13:26:20;3.35;;;2.15;;
19358;SDS011;9815;52.334;20.890;2023-05-10T13:28:49;4.03;;;1.92;;
19358;SDS011;9815;52.334;20.890;2023-05-10T13:31:18;6.88;;;1.95;;
19358;SDS011;9815;52.334;20.890;2023-05-10T13:33:47;5.63;;;1.92;;
19358;SDS011;9815;52.334;20.890;2023-05-10T13:36:15;7.75;;;1.70;;
19358;SDS011;9815;52.334;20.890;2023-05-10T13:38:43;5.90;;;2.20;;
19358;SDS011;9815;52.334;20.890;2023-05-10T13:41:11;6.95;;;2.20;;
19358;SDS011;9815;52.334;20.890;2023-05-10T13:43:39;5.40;;;2.05;;
19358;SDS011;9815;52.334;20.890;2023-05-10T13:46:09;3.25;;;1.92;;
19358;SDS011;9815;52.334;20.890;2023-05-10T13:48:37;5.38;;;1.95;;
19358;SDS011;9815;52.334;20.890;2023-05-10T13:51:05;5.07;;;1.80;;
19358;SDS011;9815;52.334;20.890;2023-05-10T13:53:34;4.20;;;1.70;;
19358;SDS011;9815;52.334;20.890;2023-05-10T13:59:10;5.30;;;1.85;;
19358;SDS011;9815;52.334;20.890;2023-05-10T14:01:39;6.47;;;2.10;;
19358;SDS011;9815;52.334;20.890;2023-05-10T14:04:09;3.05;;;1.60;;
19358;SDS011;9815;52.334;20.890;2023-05-10T14:06:37;11.35;;;2.03;;
19358;SDS011;9815;52.334;20.890;2023-05-10T14:09:05;9.10;;;2.28;;
19358;SDS011;9815;52.334;20.890;2023-05-10T14:11:34;3.87;;;1.80;;
19358;SDS011;9815;52.334;20.890;2023-05-10T14:14:03;8.90;;;2.10;;
19358;SDS011;9815;52.334;20.890;2023-05-10T14:16:31;3.97;;;1.73;;
19358;SDS011;9815;52.334;20.890;2023-05-10T14:19:01;8.52;;;1.95;;
19358;SDS011;9815;52.334;20.890;2023-05-10T14:21:30;5.00;;;2.00;;
19358;SDS011;9815;52.334;20.890;2023-05-10T14:23:58;3.55;;;1.70;;
19358;SDS011;9815;52.334;20.890;2023-05-10T14:26:26;2.58;;;1.60;;
19358;SDS011;9815;52.334;20.890;2023-05-10T14:28:54;2.25;;;1.42;;
19358;SDS011;9815;52.334;20.890;2023-05-10T14:31:22;5.72;;;1.98;;
19358;SDS011;9815;52.334;20.890;2023-05-10T14:33:52;4.30;;;1.58;;
19358;SDS011;9815;52.334;20.890;2023-05-10T14:36:22;2.72;;;1.80;;
19358;SDS011;9815;52.334;20.890;2023-05-10T14:38:50;8.27;;;2.10;;
19358;SDS011;9815;52.334;20.890;2023-05-10T14:41:18;6.68;;;1.85;;
19358;SDS011;9815;52.334;20.890;2023-05-10T14:43:46;6.15;;;2.10;;
19358;SDS011;9815;52.334;20.890;2023-05-10T14:46:14;3.60;;;1.60;;
19358;SDS011;9815;52.334;20.890;2023-05-10T14:48:43;3.47;;;1.80;;
19358;SDS011;9815;52.334;20.890;2023-05-10T14:51:11;3.70;;;1.73;;
19358;SDS011;9815;52.334;20.890;2023-05-10T14:53:40;7.28;;;1.75;;
19358;SDS011;9815;52.334;20.890;2023-05-10T14:56:08;4.90;;;1.65;;
19358;SDS011;9815;52.334;20.890;2023-05-10T14:58:36;2.83;;;1.60;;
19358;SDS011;9815;52.334;20.890;2023-05-10T15:01:05;8.93;;;1.70;;
19358;SDS011;9815;52.334;20.890;2023-05-10T15:03:33;3.40;;;1.80;;
19358;SDS011;9815;52.334;20.890;2023-05-10T15:06:03;3.03;;;1.77;;